sensor_id;sensor_type;location;lat;lon;timestamp;pressure;altitude;pressure_sealevel;temperature;humidity
69173;BME280;56280;49.662;8.408;2024-01-30T00:01:23;102113.00;;;3.15;100.00
69173;BME280;56280;49.662;8.408;2024-01-30T00:03:48;102117.34;;;3.17;100.00
69173;BME280;56280;49.662;8.408;2024-01-30T00:06:18;102123.06;;;3.33;100.00
69173;BME280;56280;49.662;8.408;2024-01-30T00:08:45;102090.91;;;3.23;100.00
69173;BME280;56280;49.662;8.408;2024-01-30T00:11:13;102113.16;;;3.43;100.00
69173;BME280;56280;49.662;8.408;2024-01-30T00:13:39;102100.72;;;3.15;100.00
69173;BME280;56280;49.662;8.408;2024-01-30T00:16:04;102120.50;;;2.92;100.00
69173;BME280;56280;49.662;8.408;2024-01-30T00:18:30;102114.16;;;2.64;100.00
69173;BME280;56280;49.662;8.408;2024-01-30T00:20:55;102117.75;;;2.60;100.00
69173;BME280;56280;49.662;8.408;2024-01-30T00:23:20;102095.97;;;2.56;100.00
69173;BME280;56280;49.662;8.408;2024-01-30T00:25:45;102107.81;;;2.74;100.00
69173;BME280;56280;49.662;8.408;2024-01-30T00:28:11;102098.03;;;2.81;100.00
69173;BME280;56280;49.662;8.408;2024-01-30T00:30:36;102130.91;;;2.97;100.00
69173;BME280;56280;49.662;8.408;2024-01-30T00:33:01;102133.75;;;2.88;100.00
69173;BME280;56280;49.662;8.408;2024-01-30T00:35:26;102134.56;;;2.91;100.00
69173;BME280;56280;49.662;8.408;2024-01-30T00:37:52;102120.53;;;2.91;100.00
69173;BME280;56280;49.662;8.408;2024-01-30T00:40:17;102121.56;;;2.85;100.00
69173;BME280;56280;49.662;8.408;2024-01-30T00:42:43;102123.69;;;2.68;100.00
69173;BME280;56280;49.662;8.408;2024-01-30T00:45:14;102116.91;;;2.58;100.00
69173;BME280;56280;49.662;8.408;2024-01-30T00:47:40;102075.28;;;2.42;100.00
69173;BME280;56280;49.662;8.408;2024-01-30T00:50:05;102129.59;;;2.78;100.00
69173;BME280;56280;49.662;8.408;2024-01-30T00:52:31;102130.38;;;2.81;100.00
69173;BME280;56280;49.662;8.408;2024-01-30T00:54:58;102112.34;;;2.67;100.00
69173;BME280;56280;49.662;8.408;2024-01-30T00:57:23;102117.38;;;2.77;100.00
69173;BME280;56280;49.662;8.408;2024-01-30T00:59:49;102119.09;;;2.78;100.00
69173;BME280;56280;49.662;8.408;2024-01-30T01:02:14;102125.25;;;2.77;100.00
69173;BME280;56280;49.662;8.408;2024-01-30T01:04:40;102131.31;;;2.80;100.00
69173;BME280;56280;49.662;8.408;2024-01-30T01:07:05;102101.97;;;2.61;100.00
69173;BME280;56280;49.662;8.408;2024-01-30T01:09:30;102127.91;;;2.75;100.00
69173;BME280;56280;49.662;8.408;2024-01-30T01:11:56;102116.69;;;2.68;100.00
69173;BME280;56280;49.662;8.408;2024-01-30T01:14:21;102103.59;;;2.67;100.00
69173;BME280;56280;49.662;8.408;2024-01-30T01:16:46;102132.16;;;2.81;100.00
69173;BME280;56280;49.662;8.408;2024-01-30T01:19:11;102108.09;;;2.62;100.00
69173;BME280;56280;49.662;8.408;2024-01-30T01:21:37;102115.75;;;2.71;100.00
69173;BME280;56280;49.662;8.408;2024-01-30T01:24:02;102115.75;;;2.71;100.00
69173;BME280;56280;49.662;8.408;2024-01-30T01:26:28;102111.09;;;2.84;100.00
69173;BME280;56280;49.662;8.408;2024-01-30T01:28:53;102111.78;;;2.92;100.00
69173;BME280;56280;49.662;8.408;2024-01-30T01:31:18;102101.38;;;2.87;100.00
69173;BME280;56280;49.662;8.408;2024-01-30T01:33:43;102134.78;;;2.81;100.00
69173;BME280;56280;49.662;8.408;2024-01-30T01:36:09;102127.59;;;2.89;100.00
69173;BME280;56280;49.662;8.408;2024-01-30T01:38:34;102121.13;;;2.65;100.00
69173;BME280;56280;49.662;8.408;2024-01-30T01:40:59;102130.94;;;2.57;100.00
69173;BME280;56280;49.662;8.408;2024-01-30T01:43:24;102130.13;;;2.54;100.00
69173;BME280;56280;49.662;8.408;2024-01-30T01:45:50;102101.44;;;2.45;100.00
69173;BME280;56280;49.662;8.408;2024-01-30T01:48:15;102128.16;;;2.64;100.00
69173;BME280;56280;49.662;8.408;2024-01-30T01:50:41;102128.13;;;2.66;100.00
69173;BME280;56280;49.662;8.408;2024-01-30T01:53:07;102087.56;;;2.40;100.00
69173;BME280;56280;49.662;8.408;2024-01-30T01:55:34;102105.56;;;2.57;100.00
69173;BME280;56280;49.662;8.408;2024-01-30T01:58:00;102108.16;;;2.59;100.00
69173;BME280;56280;49.662;8.408;2024-01-30T02:00:26;102107.28;;;2.58;100.00
69173;BME280;56280;49.662;8.408;2024-01-30T02:02:53;102114.22;;;2.61;100.00
69173;BME280;56280;49.662;8.408;2024-01-30T02:05:20;102123.03;;;2.58;100.00
69173;BME280;56280;49.662;8.408;2024-01-30T02:07:46;102098.00;;;2.43;100.00
69173;BME280;56280;49.662;8.408;2024-01-30T02:10:11;102106.75;;;2.42;100.00
69173;BME280;56280;49.662;8.408;2024-01-30T02:12:37;102118.81;;;2.49;100.00
69173;BME280;56280;49.662;8.408;2024-01-30T02:15:02;102122.31;;;2.51;100.00
69173;BME280;56280;49.662;8.408;2024-01-30T02:17:28;102103.38;;;2.37;100.00
69173;BME280;56280;49.662;8.408;2024-01-30T02:19:53;102081.84;;;2.21;100.00
69173;BME280;56280;49.662;8.408;2024-01-30T02:22:20;102115.56;;;2.38;100.00
69173;BME280;56280;49.662;8.408;2024-01-30T02:24:45;102116.66;;;2.28;100.00
69173;BME280;56280;49.662;8.408;2024-01-30T02:27:10;102102.84;;;2.19;100.00
69173;BME280;56280;49.662;8.408;2024-01-30T02:29:35;102120.38;;;2.17;100.00
69173;BME280;56280;49.662;8.408;2024-01-30T02:32:01;102104.84;;;2.07;100.00
69173;BME280;56280;49.662;8.408;2024-01-30T02:34:26;102122.03;;;2.22;100.00
69173;BME280;56280;49.662;8.408;2024-01-30T02:36:52;102113.47;;;1.65;100.00
69173;BME280;56280;49.662;8.408;2024-01-30T02:39:17;102114.16;;;1.75;100.00
69173;BME280;56280;49.662;8.408;2024-01-30T02:41:42;102130.31;;;2.00;100.00
69173;BME280;56280;49.662;8.408;2024-01-30T02:44:07;102104.06;;;2.03;100.00
69173;BME280;56280;49.662;8.408;2024-01-30T02:46:33;102110.88;;;2.10;100.00
69173;BME280;56280;49.662;8.408;2024-01-30T02:48:58;102116.00;;;2.16;100.00
69173;BME280;56280;49.662;8.408;2024-01-30T02:51:23;102111.63;;;2.17;100.00
69173;BME280;56280;49.662;8.408;2024-01-30T02:53:49;102129.84;;;2.25;100.00
69173;BME280;56280;49.662;8.408;2024-01-30T02:56:14;102103.06;;;2.07;100.00
69173;BME280;56280;49.662;8.408;2024-01-30T02:58:40;102121.09;;;2.26;100.00
69173;BME280;56280;49.662;8.408;2024-01-30T03:01:06;102060.66;;;1.87;100.00
69173;BME280;56280;49.662;8.408;2024-01-30T03:03:31;102125.53;;;2.21;100.00
69173;BME280;56280;49.662;8.408;2024-01-30T03:05:56;102108.97;;;2.18;100.00
69173;BME280;56280;49.662;8.408;2024-01-30T03:08:22;102123.53;;;2.33;100.00
69173;BME280;56280;49.662;8.408;2024-01-30T03:10:47;102108.72;;;2.32;100.00
69173;BME280;56280;49.662;8.408;2024-01-30T03:13:12;102073.22;;;2.16;100.00
69173;BME280;56280;49.662;8.408;2024-01-30T03:15:38;102106.69;;;2.02;100.00
69173;BME280;56280;49.662;8.408;2024-01-30T03:18:03;102110.16;;;2.04;100.00
69173;BME280;56280;49.662;8.408;2024-01-30T03:20:31;102119.53;;;2.15;100.00
69173;BME280;56280;49.662;8.408;2024-01-30T03:22:56;102115.94;;;2.19;100.00
69173;BME280;56280;49.662;8.408;2024-01-30T03:25:22;102102.06;;;2.14;100.00
69173;BME280;56280;49.662;8.408;2024-01-30T03:27:47;102109.03;;;2.15;100.00
69173;BME280;56280;49.662;8.408;2024-01-30T03:30:12;102070.16;;;1.92;100.00
69173;BME280;56280;49.662;8.408;2024-01-30T03:32:37;102091.81;;;2.02;100.00
69173;BME280;56280;49.662;8.408;2024-01-30T03:35:03;102115.84;;;2.26;100.00
69173;BME280;56280;49.662;8.408;2024-01-30T03:37:29;102104.81;;;2.08;100.00
69173;BME280;56280;49.662;8.408;2024-01-30T03:39:54;102108.53;;;1.96;100.00
69173;BME280;56280;49.662;8.408;2024-01-30T03:42:19;102092.34;;;1.74;100.00
69173;BME280;56280;49.662;8.408;2024-01-30T03:44:44;102092.25;;;1.80;100.00
69173;BME280;56280;49.662;8.408;2024-01-30T03:47:10;102104.22;;;1.94;100.00
69173;BME280;56280;49.662;8.408;2024-01-30T03:49:35;102118.75;;;2.10;100.00
69173;BME280;56280;49.662;8.408;2024-01-30T03:52:00;102117.81;;;2.14;100.00
69173;BME280;56280;49.662;8.408;2024-01-30T03:54:26;102110.03;;;2.10;100.00
69173;BME280;56280;49.662;8.408;2024-01-30T03:56:51;102114.53;;;2.03;100.00
69173;BME280;56280;49.662;8.408;2024-01-30T03:59:16;102109.22;;;2.06;100.00
69173;BME280;56280;49.662;8.408;2024-01-30T04:01:47;102107.50;;;2.05;100.00
69173;BME280;56280;49.662;8.408;2024-01-30T04:04:12;102087.53;;;1.98;100.00
69173;BME280;56280;49.662;8.408;2024-01-30T04:06:37;102106.41;;;2.15;100.00
69173;BME280;56280;49.662;8.408;2024-01-30T04:09:03;102107.34;;;2.13;100.00
69173;BME280;56280;49.662;8.408;2024-01-30T04:11:28;102094.38;;;2.05;100.00
69173;BME280;56280;49.662;8.408;2024-01-30T04:13:54;102112.56;;;2.14;100.00
69173;BME280;56280;49.662;8.408;2024-01-30T04:16:22;102085.78;;;1.98;100.00
69173;BME280;56280;49.662;8.408;2024-01-30T04:18:48;102077.25;;;1.89;100.00
69173;BME280;56280;49.662;8.408;2024-01-30T04:21:13;102096.13;;;2.06;100.00
69173;BME280;56280;49.662;8.408;2024-01-30T04:23:42;102085.78;;;1.98;100.00
69173;BME280;56280;49.662;8.408;2024-01-30T04:26:07;102096.19;;;2.03;100.00
69173;BME280;56280;49.662;8.408;2024-01-30T04:28:32;102077.16;;;1.93;100.00
69173;BME280;56280;49.662;8.408;2024-01-30T04:30:57;102072.84;;;1.89;100.00
69173;BME280;56280;49.662;8.408;2024-01-30T04:33:23;102091.88;;;1.99;100.00
69173;BME280;56280;49.662;8.408;2024-01-30T04:35:48;102107.47;;;2.07;100.00
69173;BME280;56280;49.662;8.408;2024-01-30T04:38:13;102086.63;;;1.99;100.00
69173;BME280;56280;49.662;8.408;2024-01-30T04:40:40;102098.84;;;2.02;100.00
69173;BME280;56280;49.662;8.408;2024-01-30T04:43:05;102110.00;;;2.11;100.00
69173;BME280;56280;49.662;8.408;2024-01-30T04:45:30;102098.78;;;2.05;100.00
69173;BME280;56280;49.662;8.408;2024-01-30T04:47:55;102077.00;;;1.99;100.00
69173;BME280;56280;49.662;8.408;2024-01-30T04:50:21;102105.59;;;2.13;100.00
69173;BME280;56280;49.662;8.408;2024-01-30T04:52:46;102098.81;;;2.03;100.00
69173;BME280;56280;49.662;8.408;2024-01-30T04:55:11;102071.13;;;1.88;100.00
69173;BME280;56280;49.662;8.408;2024-01-30T04:57:36;102102.38;;;1.99;100.00
69173;BME280;56280;49.662;8.408;2024-01-30T05:00:02;102106.06;;;1.89;100.00
69173;BME280;56280;49.662;8.408;2024-01-30T05:02:28;102091.41;;;1.77;100.00
69173;BME280;56280;49.662;8.408;2024-01-30T05:04:53;102091.34;;;1.81;100.00
69173;BME280;56280;49.662;8.408;2024-01-30T05:07:19;102117.34;;;1.92;100.00
69173;BME280;56280;49.662;8.408;2024-01-30T05:09:44;102081.00;;;1.74;100.00
69173;BME280;56280;49.662;8.408;2024-01-30T05:12:09;102110.41;;;1.88;100.00
69173;BME280;56280;49.662;8.408;2024-01-30T05:14:34;102118.06;;;2.00;100.00
69173;BME280;56280;49.662;8.408;2024-01-30T05:17:00;102127.63;;;2.05;100.00
69173;BME280;56280;49.662;8.408;2024-01-30T05:19:25;102106.84;;;1.94;100.00
69173;BME280;56280;49.662;8.408;2024-01-30T05:21:50;102126.69;;;2.07;100.00
69173;BME280;56280;49.662;8.408;2024-01-30T05:24:16;102103.25;;;1.98;100.00
69173;BME280;56280;49.662;8.408;2024-01-30T05:26:41;102106.19;;;1.82;100.00
69173;BME280;56280;49.662;8.408;2024-01-30T05:29:06;102125.22;;;1.92;100.00
69173;BME280;56280;49.662;8.408;2024-01-30T05:31:32;102130.38;;;1.97;100.00
69173;BME280;56280;49.662;8.408;2024-01-30T05:33:58;102038.00;;;1.37;100.00
69173;BME280;56280;49.662;8.408;2024-01-30T05:36:23;102137.34;;;1.96;100.00
69173;BME280;56280;49.662;8.408;2024-01-30T05:38:48;102129.53;;;1.95;100.00
69173;BME280;56280;49.662;8.408;2024-01-30T05:41:13;102115.69;;;1.87;100.00
69173;BME280;56280;49.662;8.408;2024-01-30T05:43:39;102118.31;;;1.87;100.00
69173;BME280;56280;49.662;8.408;2024-01-30T05:46:04;102126.16;;;1.88;100.00
69173;BME280;56280;49.662;8.408;2024-01-30T05:48:30;102123.81;;;1.74;100.00
69173;BME280;56280;49.662;8.408;2024-01-30T05:50:55;102122.84;;;1.78;100.00
69173;BME280;56280;49.662;8.408;2024-01-30T05:53:21;102128.69;;;1.93;100.00
69173;BME280;56280;49.662;8.408;2024-01-30T05:55:47;102121.75;;;1.92;100.00
69173;BME280;56280;49.662;8.408;2024-01-30T05:58:15;102140.84;;;1.97;100.00
69173;BME280;56280;49.662;8.408;2024-01-30T06:00:44;102136.56;;;1.91;100.00
69173;BME280;56280;49.662;8.408;2024-01-30T06:03:09;102132.38;;;1.82;100.00
69173;BME280;56280;49.662;8.408;2024-01-30T06:05:35;102052.13;;;1.28;100.00
69173;BME280;56280;49.662;8.408;2024-01-30T06:08:00;102070.38;;;1.33;100.00
69173;BME280;56280;49.662;8.408;2024-01-30T06:10:25;102019.34;;;1.04;100.00
69173;BME280;56280;49.662;8.408;2024-01-30T06:12:51;101953.66;;;0.70;100.00
69173;BME280;56280;49.662;8.408;2024-01-30T06:15:28;102071.03;;;1.46;100.00
69173;BME280;56280;49.662;8.408;2024-01-30T06:17:55;102140.97;;;1.91;100.00
69173;BME280;56280;49.662;8.408;2024-01-30T06:20:20;102079.59;;;1.54;100.00
69173;BME280;56280;49.662;8.408;2024-01-30T06:22:46;102091.91;;;1.51;100.00
69173;BME280;56280;49.662;8.408;2024-01-30T06:25:11;102053.91;;;1.26;100.00
69173;BME280;56280;49.662;8.408;2024-01-30T06:27:37;102112.06;;;1.45;100.00
69173;BME280;56280;49.662;8.408;2024-01-30T06:30:03;102086.78;;;1.43;100.00
69173;BME280;56280;49.662;8.408;2024-01-30T06:32:29;102064.22;;;1.36;100.00
69173;BME280;56280;49.662;8.408;2024-01-30T06:34:59;102101.25;;;1.64;100.00
69173;BME280;56280;49.662;8.408;2024-01-30T06:37:24;102120.22;;;1.78;100.00
69173;BME280;56280;49.662;8.408;2024-01-30T06:39:49;102112.34;;;1.78;100.00
69173;BME280;56280;49.662;8.408;2024-01-30T06:42:15;102119.25;;;1.84;100.00
69173;BME280;56280;49.662;8.408;2024-01-30T06:44:41;102127.81;;;1.94;100.00
69173;BME280;56280;49.662;8.408;2024-01-30T06:47:06;102107.97;;;1.80;100.00
69173;BME280;56280;49.662;8.408;2024-01-30T06:49:31;102100.28;;;1.71;100.00
69173;BME280;56280;49.662;8.408;2024-01-30T06:51:57;102047.31;;;1.54;100.00
69173;BME280;56280;49.662;8.408;2024-01-30T06:54:22;102085.38;;;1.73;100.00
69173;BME280;56280;49.662;8.408;2024-01-30T06:56:47;102079.34;;;1.70;100.00
69173;BME280;56280;49.662;8.408;2024-01-30T06:59:13;102112.09;;;1.92;100.00
69173;BME280;56280;49.662;8.408;2024-01-30T07:01:38;102116.28;;;2.01;100.00
69173;BME280;56280;49.662;8.408;2024-01-30T07:04:03;102123.16;;;2.08;100.00
69173;BME280;56280;49.662;8.408;2024-01-30T07:06:29;102086.13;;;1.80;100.00
69173;BME280;56280;49.662;8.408;2024-01-30T07:08:54;102097.44;;;1.84;100.00
69173;BME280;56280;49.662;8.408;2024-01-30T07:11:20;102147.53;;;2.13;100.00
69173;BME280;56280;49.662;8.408;2024-01-30T07:13:47;102104.34;;;1.86;100.00
69173;BME280;56280;49.662;8.408;2024-01-30T07:16:13;102126.69;;;2.07;100.00
69173;BME280;56280;49.662;8.408;2024-01-30T07:18:39;102141.38;;;2.16;100.00
69173;BME280;56280;49.662;8.408;2024-01-30T07:21:04;102103.38;;;1.92;100.00
69173;BME280;56280;49.662;8.408;2024-01-30T07:23:29;102125.19;;;1.94;100.00
69173;BME280;56280;49.662;8.408;2024-01-30T07:25:57;102107.09;;;1.80;100.00
69173;BME280;56280;49.662;8.408;2024-01-30T07:28:22;102086.41;;;1.66;100.00
69173;BME280;56280;49.662;8.408;2024-01-30T07:30:51;102123.28;;;2.02;100.00
69173;BME280;56280;49.662;8.408;2024-01-30T07:33:16;102144.44;;;2.36;100.00
69173;BME280;56280;49.662;8.408;2024-01-30T07:35:41;102147.03;;;2.38;100.00
69173;BME280;56280;49.662;8.408;2024-01-30T07:38:07;102091.75;;;2.07;100.00
69173;BME280;56280;49.662;8.408;2024-01-30T07:40:32;102132.13;;;2.42;100.00
69173;BME280;56280;49.662;8.408;2024-01-30T07:42:58;102133.78;;;2.46;100.00
69173;BME280;56280;49.662;8.408;2024-01-30T07:45:23;102162.19;;;2.69;100.00
69173;BME280;56280;49.662;8.408;2024-01-30T07:47:50;102162.81;;;2.80;100.00
69173;BME280;56280;49.662;8.408;2024-01-30T07:50:16;102153.84;;;2.89;100.00
69173;BME280;56280;49.662;8.408;2024-01-30T07:52:42;102094.16;;;2.58;100.00
69173;BME280;56280;49.662;8.408;2024-01-30T07:55:08;102153.22;;;3.17;100.00
69173;BME280;56280;49.662;8.408;2024-01-30T07:57:33;102125.38;;;3.09;100.00
69173;BME280;56280;49.662;8.408;2024-01-30T07:59:59;102126.00;;;3.21;100.00
69173;BME280;56280;49.662;8.408;2024-01-30T08:02:24;102152.34;;;3.54;100.00
69173;BME280;56280;49.662;8.408;2024-01-30T08:04:49;102155.56;;;3.65;100.00
69173;BME280;56280;49.662;8.408;2024-01-30T08:07:15;102163.91;;;3.81;100.00
69173;BME280;56280;49.662;8.408;2024-01-30T08:09:40;102161.81;;;3.94;100.00
69173;BME280;56280;49.662;8.408;2024-01-30T08:12:06;102152.84;;;4.03;100.00
69173;BME280;56280;49.662;8.408;2024-01-30T08:14:31;102137.72;;;4.11;100.00
69173;BME280;56280;49.662;8.408;2024-01-30T08:16:57;102143.31;;;4.30;100.00
69173;BME280;56280;49.662;8.408;2024-01-30T08:19:22;102167.19;;;4.53;100.00
69173;BME280;56280;49.662;8.408;2024-01-30T08:21:47;102173.88;;;4.65;100.00
69173;BME280;56280;49.662;8.408;2024-01-30T08:24:12;102174.56;;;4.72;100.00
69173;BME280;56280;49.662;8.408;2024-01-30T08:26:38;102144.06;;;4.65;100.00
69173;BME280;56280;49.662;8.408;2024-01-30T08:29:04;102162.03;;;4.80;100.00
69173;BME280;56280;49.662;8.408;2024-01-30T08:31:29;102127.31;;;4.67;100.00
69173;BME280;56280;49.662;8.408;2024-01-30T08:33:54;102125.28;;;4.77;100.00
69173;BME280;56280;49.662;8.408;2024-01-30T08:36:19;102138.91;;;4.90;100.00
69173;BME280;56280;49.662;8.408;2024-01-30T08:38:45;102136.25;;;4.91;100.00
69173;BME280;56280;49.662;8.408;2024-01-30T08:41:10;102163.91;;;5.05;100.00
69173;BME280;56280;49.662;8.408;2024-01-30T08:43:35;102133.47;;;4.96;100.00
69173;BME280;56280;49.662;8.408;2024-01-30T08:46:01;102151.28;;;5.16;100.00
69173;BME280;56280;49.662;8.408;2024-01-30T08:48:27;102159.41;;;5.08;100.00
69173;BME280;56280;49.662;8.408;2024-01-30T08:50:52;102153.94;;;5.15;100.00
69173;BME280;56280;49.662;8.408;2024-01-30T08:53:18;102161.75;;;5.18;100.00
69173;BME280;56280;49.662;8.408;2024-01-30T08:55:43;102138.34;;;5.08;100.00
69173;BME280;56280;49.662;8.408;2024-01-30T08:58:09;102165.75;;;5.29;100.00
69173;BME280;56280;49.662;8.408;2024-01-30T09:00:34;102175.31;;;5.34;100.00
69173;BME280;56280;49.662;8.408;2024-01-30T09:03:00;102153.91;;;5.16;100.00
69173;BME280;56280;49.662;8.408;2024-01-30T09:05:25;102154.94;;;5.12;100.00
69173;BME280;56280;49.662;8.408;2024-01-30T09:07:50;102058.38;;;4.54;100.00
69173;BME280;56280;49.662;8.408;2024-01-30T09:10:15;102150.22;;;5.22;100.00
69173;BME280;56280;49.662;8.408;2024-01-30T09:12:41;102133.53;;;5.21;100.00
69173;BME280;56280;49.662;8.408;2024-01-30T09:15:06;102163.53;;;5.17;100.00
69173;BME280;56280;49.662;8.408;2024-01-30T09:17:32;102076.22;;;4.45;100.00
69173;BME280;56280;49.662;8.408;2024-01-30T09:19:58;102159.66;;;5.01;100.00
69173;BME280;56280;49.662;8.408;2024-01-30T09:22:23;102137.63;;;5.03;100.00
69173;BME280;56280;49.662;8.408;2024-01-30T09:24:49;102160.66;;;5.25;100.00
69173;BME280;56280;49.662;8.408;2024-01-30T09:27:14;102175.94;;;5.42;100.00
69173;BME280;56280;49.662;8.408;2024-01-30T09:29:39;102101.53;;;5.05;100.00
69173;BME280;56280;49.662;8.408;2024-01-30T09:32:05;102146.72;;;5.48;100.00
69173;BME280;56280;49.662;8.408;2024-01-30T09:34:31;102160.28;;;5.64;100.00
69173;BME280;56280;49.662;8.408;2024-01-30T09:36:56;102124.69;;;5.51;100.00
69173;BME280;56280;49.662;8.408;2024-01-30T09:39:22;102162.16;;;5.85;100.00
69173;BME280;56280;49.662;8.408;2024-01-30T09:44:48;102188.50;;;6.14;100.00
69173;BME280;56280;49.662;8.408;2024-01-30T09:47:16;102177.72;;;6.20;100.00
69173;BME280;56280;49.662;8.408;2024-01-30T09:49:43;102139.16;;;6.16;100.00
69173;BME280;56280;49.662;8.408;2024-01-30T09:52:08;102154.34;;;6.34;100.00
69173;BME280;56280;49.662;8.408;2024-01-30T09:54:34;102184.00;;;6.65;100.00
69173;BME280;56280;49.662;8.408;2024-01-30T09:57:00;102160.81;;;6.73;100.00
69173;BME280;56280;49.662;8.408;2024-01-30T09:59:26;102151.97;;;6.74;100.00
69173;BME280;56280;49.662;8.408;2024-01-30T10:01:51;102166.28;;;6.90;100.00
69173;BME280;56280;49.662;8.408;2024-01-30T10:04:17;102166.47;;;6.86;100.00
69173;BME280;56280;49.662;8.408;2024-01-30T10:06:42;102167.50;;;7.05;100.00
69173;BME280;56280;49.662;8.408;2024-01-30T10:09:07;102152.13;;;7.15;100.00
69173;BME280;56280;49.662;8.408;2024-01-30T10:11:34;102176.72;;;7.39;100.00
69173;BME280;56280;49.662;8.408;2024-01-30T10:14:00;102177.88;;;7.54;100.00
69173;BME280;56280;49.662;8.408;2024-01-30T10:16:25;102163.97;;;7.49;100.00
69173;BME280;56280;49.662;8.408;2024-01-30T10:18:50;102160.88;;;7.60;100.00
69173;BME280;56280;49.662;8.408;2024-01-30T10:21:16;102153.59;;;7.22;100.00
69173;BME280;56280;49.662;8.408;2024-01-30T10:23:43;102157.28;;;7.40;100.00
69173;BME280;56280;49.662;8.408;2024-01-30T10:26:08;102164.41;;;7.60;100.00
69173;BME280;56280;49.662;8.408;2024-01-30T10:28:34;102145.31;;;7.32;100.00
69173;BME280;56280;49.662;8.408;2024-01-30T10:30:59;102162.59;;;7.61;100.00
69173;BME280;56280;49.662;8.408;2024-01-30T10:33:26;102160.13;;;7.78;100.00
69173;BME280;56280;49.662;8.408;2024-01-30T10:35:55;102168.84;;;8.01;100.00
69173;BME280;56280;49.662;8.408;2024-01-30T10:38:28;102164.28;;;8.04;100.00
69173;BME280;56280;49.662;8.408;2024-01-30T10:40:56;102142.50;;;7.98;100.00
69173;BME280;56280;49.662;8.408;2024-01-30T10:43:22;102149.72;;;8.15;100.00
69173;BME280;56280;49.662;8.408;2024-01-30T10:45:49;102142.31;;;8.23;100.00
69173;BME280;56280;49.662;8.408;2024-01-30T10:48:18;102146.50;;;8.27;100.00
69173;BME280;56280;49.662;8.408;2024-01-30T10:50:46;102165.97;;;8.47;100.00
69173;BME280;56280;49.662;8.408;2024-01-30T10:53:12;102157.34;;;8.42;100.00
69173;BME280;56280;49.662;8.408;2024-01-30T10:55:38;102164.28;;;8.46;100.00
69173;BME280;56280;49.662;8.408;2024-01-30T10:58:04;102153.13;;;8.37;100.00
69173;BME280;56280;49.662;8.408;2024-01-30T11:00:30;102139.66;;;8.44;100.00
69173;BME280;56280;49.662;8.408;2024-01-30T11:02:58;102145.00;;;8.61;100.00
69173;BME280;56280;49.662;8.408;2024-01-30T11:05:24;102169.44;;;8.87;100.00
69173;BME280;56280;49.662;8.408;2024-01-30T11:07:52;102136.06;;;8.83;100.00
69173;BME280;56280;49.662;8.408;2024-01-30T11:10:18;102148.00;;;9.10;100.00
69173;BME280;56280;49.662;8.408;2024-01-30T11:12:46;102136.31;;;9.15;100.00
69173;BME280;56280;49.662;8.408;2024-01-30T11:15:15;102144.69;;;9.24;100.00
69173;BME280;56280;49.662;8.408;2024-01-30T11:20:10;102163.69;;;9.52;100.00
69173;BME280;56280;49.662;8.408;2024-01-30T11:22:36;102170.63;;;9.72;100.00
69173;BME280;56280;49.662;8.408;2024-01-30T11:25:02;102165.00;;;9.78;100.00
69173;BME280;56280;49.662;8.408;2024-01-30T11:27:29;102142.44;;;9.69;100.00
69173;BME280;56280;49.662;8.408;2024-01-30T11:30:01;102162.13;;;9.82;100.00
69173;BME280;56280;49.662;8.408;2024-01-30T11:32:26;102157.44;;;9.88;100.00
69173;BME280;56280;49.662;8.408;2024-01-30T11:34:52;102159.94;;;9.91;100.00
69173;BME280;56280;49.662;8.408;2024-01-30T11:37:20;102136.59;;;9.80;100.00
69173;BME280;56280;49.662;8.408;2024-01-30T11:39:48;102113.66;;;9.61;100.00
69173;BME280;56280;49.662;8.408;2024-01-30T11:42:13;102124.28;;;9.79;100.00
69173;BME280;56280;49.662;8.408;2024-01-30T11:44:39;102134.78;;;9.80;100.00
69173;BME280;56280;49.662;8.408;2024-01-30T11:47:05;102118.00;;;9.80;100.00
69173;BME280;56280;49.662;8.408;2024-01-30T11:49:30;102057.09;;;9.26;100.00
69173;BME280;56280;49.662;8.408;2024-01-30T11:51:56;102067.28;;;9.34;100.00
69173;BME280;56280;49.662;8.408;2024-01-30T11:54:21;102098.06;;;9.55;100.00
69173;BME280;56280;49.662;8.408;2024-01-30T11:56:47;102090.00;;;9.57;100.00
69173;BME280;56280;49.662;8.408;2024-01-30T11:59:12;102092.09;;;9.67;100.00
69173;BME280;56280;49.662;8.408;2024-01-30T12:01:38;102074.31;;;9.52;100.00
69173;BME280;56280;49.662;8.408;2024-01-30T12:04:04;102078.28;;;9.78;100.00
69173;BME280;56280;49.662;8.408;2024-01-30T12:06:33;102090.00;;;10.08;100.00
69173;BME280;56280;49.662;8.408;2024-01-30T12:09:00;102110.88;;;10.31;100.00
69173;BME280;56280;49.662;8.408;2024-01-30T12:11:26;102094.56;;;10.39;100.00
69173;BME280;56280;49.662;8.408;2024-01-30T12:13:52;102102.06;;;10.64;100.00
69173;BME280;56280;49.662;8.408;2024-01-30T12:16:18;102080.00;;;10.62;100.00
69173;BME280;56280;49.662;8.408;2024-01-30T12:18:43;102097.75;;;10.77;100.00
69173;BME280;56280;49.662;8.408;2024-01-30T12:21:08;102105.72;;;10.93;100.00
69173;BME280;56280;49.662;8.408;2024-01-30T12:23:35;102103.16;;;10.92;100.00
69173;BME280;56280;49.662;8.408;2024-01-30T12:26:01;102113.94;;;11.05;100.00
69173;BME280;56280;49.662;8.408;2024-01-30T12:28:27;102110.25;;;11.07;100.00
69173;BME280;56280;49.662;8.408;2024-01-30T12:30:56;102074.34;;;10.84;100.00
69173;BME280;56280;49.662;8.408;2024-01-30T12:33:26;102068.25;;;10.98;100.00
69173;BME280;56280;49.662;8.408;2024-01-30T12:35:51;102100.97;;;11.15;100.00
69173;BME280;56280;49.662;8.408;2024-01-30T12:38:17;102101.91;;;11.13;100.00
69173;BME280;56280;49.662;8.408;2024-01-30T12:40:42;102101.81;;;11.15;100.00
69173;BME280;56280;49.662;8.408;2024-01-30T12:43:08;102095.63;;;11.30;100.00
69173;BME280;56280;49.662;8.408;2024-01-30T12:45:33;102095.91;;;11.26;100.00
69173;BME280;56280;49.662;8.408;2024-01-30T12:47:59;102085.53;;;11.05;100.00